sensor_id;sensor_type;location;lat;lon;timestamp;temperature;humidity
3816;DHT22;1923;48.154;11.536;2022-08-19T00:01:46;20.70;99.90
3816;DHT22;1923;48.154;11.536;2022-08-19T00:04:21;20.70;99.90
3816;DHT22;1923;48.154;11.536;2022-08-19T00:06:51;20.70;99.90
3816;DHT22;1923;48.154;11.536;2022-08-19T00:09:21;20.70;99.90
3816;DHT22;1923;48.154;11.536;2022-08-19T00:11:50;20.80;99.90
3816;DHT22;1923;48.154;11.536;2022-08-19T00:14:19;20.80;99.90
3816;DHT22;1923;48.154;11.536;2022-08-19T00:16:50;20.80;99.90
3816;DHT22;1923;48.154;11.536;2022-08-19T00:19:22;20.80;99.90
3816;DHT22;1923;48.154;11.536;2022-08-19T00:21:50;20.80;99.90
3816;DHT22;1923;48.154;11.536;2022-08-19T00:24:19;20.80;99.90
3816;DHT22;1923;48.154;11.536;2022-08-19T00:26:48;20.80;99.90
3816;DHT22;1923;48.154;11.536;2022-08-19T00:29:19;20.70;99.90
3816;DHT22;1923;48.154;11.536;2022-08-19T00:31:49;20.70;99.90
3816;DHT22;1923;48.154;11.536;2022-08-19T00:34:20;20.80;99.90
3816;DHT22;1923;48.154;11.536;2022-08-19T00:36:48;20.80;99.90
3816;DHT22;1923;48.154;11.536;2022-08-19T00:39:17;20.80;99.90
3816;DHT22;1923;48.154;11.536;2022-08-19T00:41:46;20.80;99.90
3816;DHT22;1923;48.154;11.536;2022-08-19T00:44:18;20.80;99.90
3816;DHT22;1923;48.154;11.536;2022-08-19T00:46:56;20.90;99.90
3816;DHT22;1923;48.154;11.536;2022-08-19T00:49:34;20.70;99.90
3816;DHT22;1923;48.154;11.536;2022-08-19T00:52:07;20.70;99.90
3816;DHT22;1923;48.154;11.536;2022-08-19T00:54:37;20.70;99.90
3816;DHT22;1923;48.154;11.536;2022-08-19T00:57:11;20.70;99.90
3816;DHT22;1923;48.154;11.536;2022-08-19T00:59:43;20.80;99.90
3816;DHT22;1923;48.154;11.536;2022-08-19T01:02:30;20.80;99.90
3816;DHT22;1923;48.154;11.536;2022-08-19T01:05:02;20.70;99.90
3816;DHT22;1923;48.154;11.536;2022-08-19T01:07:32;20.70;99.90
3816;DHT22;1923;48.154;11.536;2022-08-19T01:10:05;20.70;99.90
3816;DHT22;1923;48.154;11.536;2022-08-19T01:12:34;20.80;99.90
3816;DHT22;1923;48.154;11.536;2022-08-19T01:15:03;20.70;99.90
3816;DHT22;1923;48.154;11.536;2022-08-19T01:17:33;20.80;99.90
3816;DHT22;1923;48.154;11.536;2022-08-19T01:20:03;20.90;99.90
3816;DHT22;1923;48.154;11.536;2022-08-19T01:22:34;20.90;99.90
3816;DHT22;1923;48.154;11.536;2022-08-19T01:25:07;20.80;99.90
3816;DHT22;1923;48.154;11.536;2022-08-19T01:27:43;20.70;99.90
3816;DHT22;1923;48.154;11.536;2022-08-19T01:30:12;20.70;99.90
3816;DHT22;1923;48.154;11.536;2022-08-19T01:32:41;20.70;99.90
3816;DHT22;1923;48.154;11.536;2022-08-19T01:35:13;20.60;99.90
3816;DHT22;1923;48.154;11.536;2022-08-19T01:37:48;20.60;99.90
3816;DHT22;1923;48.154;11.536;2022-08-19T01:40:19;20.60;99.90
3816;DHT22;1923;48.154;11.536;2022-08-19T01:42:48;20.50;99.90
3816;DHT22;1923;48.154;11.536;2022-08-19T01:45:18;20.50;99.90
3816;DHT22;1923;48.154;11.536;2022-08-19T01:47:47;20.50;99.90
3816;DHT22;1923;48.154;11.536;2022-08-19T01:50:27;20.60;99.90
3816;DHT22;1923;48.154;11.536;2022-08-19T01:52:57;20.60;99.90
3816;DHT22;1923;48.154;11.536;2022-08-19T01:55:34;20.60;99.90
3816;DHT22;1923;48.154;11.536;2022-08-19T01:58:09;20.70;99.90
3816;DHT22;1923;48.154;11.536;2022-08-19T02:00:38;20.70;99.90
3816;DHT22;1923;48.154;11.536;2022-08-19T02:03:07;20.70;99.90
3816;DHT22;1923;48.154;11.536;2022-08-19T02:05:38;20.70;99.90
3816;DHT22;1923;48.154;11.536;2022-08-19T02:08:08;20.70;99.90
3816;DHT22;1923;48.154;11.536;2022-08-19T02:10:40;20.70;99.90
3816;DHT22;1923;48.154;11.536;2022-08-19T02:13:09;20.70;99.90
3816;DHT22;1923;48.154;11.536;2022-08-19T02:15:39;20.70;99.90
3816;DHT22;1923;48.154;11.536;2022-08-19T02:18:09;20.70;99.90
3816;DHT22;1923;48.154;11.536;2022-08-19T02:20:38;20.70;99.90
3816;DHT22;1923;48.154;11.536;2022-08-19T02:23:09;20.70;99.90
3816;DHT22;1923;48.154;11.536;2022-08-19T02:25:44;20.70;99.90
3816;DHT22;1923;48.154;11.536;2022-08-19T02:28:16;20.80;99.90
3816;DHT22;1923;48.154;11.536;2022-08-19T02:30:46;20.70;99.90
3816;DHT22;1923;48.154;11.536;2022-08-19T02:33:15;20.70;99.90
3816;DHT22;1923;48.154;11.536;2022-08-19T02:35:45;20.70;99.90
3816;DHT22;1923;48.154;11.536;2022-08-19T02:38:22;20.70;99.90
3816;DHT22;1923;48.154;11.536;2022-08-19T02:40:57;20.70;99.90
3816;DHT22;1923;48.154;11.536;2022-08-19T02:43:27;20.70;99.90
3816;DHT22;1923;48.154;11.536;2022-08-19T02:46:02;20.70;99.90
3816;DHT22;1923;48.154;11.536;2022-08-19T02:48:33;20.60;99.90
3816;DHT22;1923;48.154;11.536;2022-08-19T02:51:02;20.70;99.90
3816;DHT22;1923;48.154;11.536;2022-08-19T02:53:31;20.80;99.90
3816;DHT22;1923;48.154;11.536;2022-08-19T02:55:59;20.90;99.90
3816;DHT22;1923;48.154;11.536;2022-08-19T02:58:30;20.90;99.90
3816;DHT22;1923;48.154;11.536;2022-08-19T03:00:58;20.80;99.90
3816;DHT22;1923;48.154;11.536;2022-08-19T03:03:27;20.70;99.90
3816;DHT22;1923;48.154;11.536;2022-08-19T03:06:04;20.70;99.90
3816;DHT22;1923;48.154;11.536;2022-08-19T03:08:34;20.80;99.90
3816;DHT22;1923;48.154;11.536;2022-08-19T03:11:02;20.70;99.90
3816;DHT22;1923;48.154;11.536;2022-08-19T03:13:31;20.70;99.90
3816;DHT22;1923;48.154;11.536;2022-08-19T03:15:59;20.60;99.90
3816;DHT22;1923;48.154;11.536;2022-08-19T03:18:29;20.60;99.90
3816;DHT22;1923;48.154;11.536;2022-08-19T03:21:01;20.50;99.90
3816;DHT22;1923;48.154;11.536;2022-08-19T03:23:29;20.60;99.90
3816;DHT22;1923;48.154;11.536;2022-08-19T03:26:02;20.60;99.90
3816;DHT22;1923;48.154;11.536;2022-08-19T03:28:43;20.60;99.90
3816;DHT22;1923;48.154;11.536;2022-08-19T03:31:24;20.50;99.90
3816;DHT22;1923;48.154;11.536;2022-08-19T03:34:11;20.60;99.90
3816;DHT22;1923;48.154;11.536;2022-08-19T03:36:39;20.60;99.90
3816;DHT22;1923;48.154;11.536;2022-08-19T03:39:09;20.70;99.90
3816;DHT22;1923;48.154;11.536;2022-08-19T03:41:41;20.80;99.90
3816;DHT22;1923;48.154;11.536;2022-08-19T03:44:13;20.80;99.90
3816;DHT22;1923;48.154;11.536;2022-08-19T03:46:44;20.80;99.90
3816;DHT22;1923;48.154;11.536;2022-08-19T03:49:13;20.70;99.90
3816;DHT22;1923;48.154;11.536;2022-08-19T03:51:45;20.80;99.90
3816;DHT22;1923;48.154;11.536;2022-08-19T03:54:16;20.80;99.90
3816;DHT22;1923;48.154;11.536;2022-08-19T03:56:47;20.80;99.90
3816;DHT22;1923;48.154;11.536;2022-08-19T03:59:17;20.80;99.90
3816;DHT22;1923;48.154;11.536;2022-08-19T04:01:46;20.80;99.90
3816;DHT22;1923;48.154;11.536;2022-08-19T04:04:14;20.80;99.90
3816;DHT22;1923;48.154;11.536;2022-08-19T04:06:45;20.80;99.90
3816;DHT22;1923;48.154;11.536;2022-08-19T04:09:14;20.90;99.90
3816;DHT22;1923;48.154;11.536;2022-08-19T04:11:47;20.90;99.90
3816;DHT22;1923;48.154;11.536;2022-08-19T04:14:18;20.80;99.90
3816;DHT22;1923;48.154;11.536;2022-08-19T04:16:47;20.80;99.90
3816;DHT22;1923;48.154;11.536;2022-08-19T04:19:18;20.80;99.90
3816;DHT22;1923;48.154;11.536;2022-08-19T04:21:48;20.90;99.90
3816;DHT22;1923;48.154;11.536;2022-08-19T04:24:17;20.80;99.90
3816;DHT22;1923;48.154;11.536;2022-08-19T04:26:46;20.90;99.90
3816;DHT22;1923;48.154;11.536;2022-08-19T04:29:17;20.80;99.90
3816;DHT22;1923;48.154;11.536;2022-08-19T04:31:46;20.80;99.90
3816;DHT22;1923;48.154;11.536;2022-08-19T04:34:17;20.90;99.90
3816;DHT22;1923;48.154;11.536;2022-08-19T04:36:49;20.80;99.90
3816;DHT22;1923;48.154;11.536;2022-08-19T04:39:20;20.80;99.90
3816;DHT22;1923;48.154;11.536;2022-08-19T04:41:50;20.70;99.90
3816;DHT22;1923;48.154;11.536;2022-08-19T04:44:36;20.70;99.90
3816;DHT22;1923;48.154;11.536;2022-08-19T04:47:12;20.70;99.90
3816;DHT22;1923;48.154;11.536;2022-08-19T04:49:40;20.60;99.90
3816;DHT22;1923;48.154;11.536;2022-08-19T04:52:08;20.60;99.90
3816;DHT22;1923;48.154;11.536;2022-08-19T04:54:36;20.70;99.90
3816;DHT22;1923;48.154;11.536;2022-08-19T04:57:08;20.60;99.90
3816;DHT22;1923;48.154;11.536;2022-08-19T04:59:38;20.60;99.90
3816;DHT22;1923;48.154;11.536;2022-08-19T05:02:07;20.70;99.90
3816;DHT22;1923;48.154;11.536;2022-08-19T05:04:36;20.60;99.90
3816;DHT22;1923;48.154;11.536;2022-08-19T05:07:06;20.70;99.90
3816;DHT22;1923;48.154;11.536;2022-08-19T05:09:34;20.70;99.90
3816;DHT22;1923;48.154;11.536;2022-08-19T05:12:24;20.80;99.90
3816;DHT22;1923;48.154;11.536;2022-08-19T05:14:55;20.70;99.90
3816;DHT22;1923;48.154;11.536;2022-08-19T05:17:24;20.80;99.90
3816;DHT22;1923;48.154;11.536;2022-08-19T05:19:55;20.80;99.90
3816;DHT22;1923;48.154;11.536;2022-08-19T05:22:42;20.70;99.90
3816;DHT22;1923;48.154;11.536;2022-08-19T05:25:14;20.70;99.90
3816;DHT22;1923;48.154;11.536;2022-08-19T05:27:43;20.70;99.90
3816;DHT22;1923;48.154;11.536;2022-08-19T05:30:12;20.70;99.90
3816;DHT22;1923;48.154;11.536;2022-08-19T05:32:41;20.60;99.90
3816;DHT22;1923;48.154;11.536;2022-08-19T05:35:09;20.70;99.90
3816;DHT22;1923;48.154;11.536;2022-08-19T05:37:38;20.70;99.90
3816;DHT22;1923;48.154;11.536;2022-08-19T05:40:08;20.70;99.90
3816;DHT22;1923;48.154;11.536;2022-08-19T05:42:37;20.70;99.90
3816;DHT22;1923;48.154;11.536;2022-08-19T05:45:08;20.70;99.90
3816;DHT22;1923;48.154;11.536;2022-08-19T05:47:37;20.70;99.90
3816;DHT22;1923;48.154;11.536;2022-08-19T05:50:08;20.80;99.90
3816;DHT22;1923;48.154;11.536;2022-08-19T05:52:37;20.80;99.90
3816;DHT22;1923;48.154;11.536;2022-08-19T05:55:15;20.80;99.90
3816;DHT22;1923;48.154;11.536;2022-08-19T05:57:47;20.90;99.90
3816;DHT22;1923;48.154;11.536;2022-08-19T06:00:16;20.90;99.90
3816;DHT22;1923;48.154;11.536;2022-08-19T06:02:50;20.90;99.90
3816;DHT22;1923;48.154;11.536;2022-08-19T06:05:19;21.00;99.90
3816;DHT22;1923;48.154;11.536;2022-08-19T06:07:47;21.00;99.90
3816;DHT22;1923;48.154;11.536;2022-08-19T06:10:15;21.00;99.90
3816;DHT22;1923;48.154;11.536;2022-08-19T06:12:43;21.10;99.90
3816;DHT22;1923;48.154;11.536;2022-08-19T06:15:13;21.00;99.90
3816;DHT22;1923;48.154;11.536;2022-08-19T06:17:43;20.90;99.90
3816;DHT22;1923;48.154;11.536;2022-08-19T06:20:13;21.00;99.90
3816;DHT22;1923;48.154;11.536;2022-08-19T06:22:46;21.10;99.90
3816;DHT22;1923;48.154;11.536;2022-08-19T06:25:15;21.00;99.90
3816;DHT22;1923;48.154;11.536;2022-08-19T06:27:44;21.10;99.90
3816;DHT22;1923;48.154;11.536;2022-08-19T06:30:32;21.10;99.90
3816;DHT22;1923;48.154;11.536;2022-08-19T06:33:01;21.10;99.90
3816;DHT22;1923;48.154;11.536;2022-08-19T06:35:29;21.20;99.90
3816;DHT22;1923;48.154;11.536;2022-08-19T06:37:57;21.10;99.90
3816;DHT22;1923;48.154;11.536;2022-08-19T06:40:25;21.10;99.90
3816;DHT22;1923;48.154;11.536;2022-08-19T06:42:54;21.10;99.90
3816;DHT22;1923;48.154;11.536;2022-08-19T06:45:23;21.10;99.90
3816;DHT22;1923;48.154;11.536;2022-08-19T06:48:02;21.00;99.90
3816;DHT22;1923;48.154;11.536;2022-08-19T06:50:30;21.10;99.90
3816;DHT22;1923;48.154;11.536;2022-08-19T06:52:58;21.10;99.90
3816;DHT22;1923;48.154;11.536;2022-08-19T06:55:30;21.10;99.90
3816;DHT22;1923;48.154;11.536;2022-08-19T06:58:01;21.10;99.90
3816;DHT22;1923;48.154;11.536;2022-08-19T07:00:31;21.10;99.90
3816;DHT22;1923;48.154;11.536;2022-08-19T07:03:02;21.20;99.90
3816;DHT22;1923;48.154;11.536;2022-08-19T07:05:39;21.20;99.90
3816;DHT22;1923;48.154;11.536;2022-08-19T07:08:12;21.20;99.90
3816;DHT22;1923;48.154;11.536;2022-08-19T07:10:43;21.10;99.90
3816;DHT22;1923;48.154;11.536;2022-08-19T07:13:13;21.10;99.90
3816;DHT22;1923;48.154;11.536;2022-08-19T07:15:41;21.10;99.90
3816;DHT22;1923;48.154;11.536;2022-08-19T07:18:11;21.10;99.90
3816;DHT22;1923;48.154;11.536;2022-08-19T07:20:40;21.10;99.90
3816;DHT22;1923;48.154;11.536;2022-08-19T07:23:10;21.10;99.90
3816;DHT22;1923;48.154;11.536;2022-08-19T07:25:42;21.10;99.90
3816;DHT22;1923;48.154;11.536;2022-08-19T07:28:18;21.20;99.90
3816;DHT22;1923;48.154;11.536;2022-08-19T07:30:51;21.20;99.90
3816;DHT22;1923;48.154;11.536;2022-08-19T07:33:20;21.30;99.90
3816;DHT22;1923;48.154;11.536;2022-08-19T07:35:49;21.40;99.90
3816;DHT22;1923;48.154;11.536;2022-08-19T07:38:17;21.40;99.90
3816;DHT22;1923;48.154;11.536;2022-08-19T07:40:45;21.50;99.90
3816;DHT22;1923;48.154;11.536;2022-08-19T07:43:14;21.50;99.90
3816;DHT22;1923;48.154;11.536;2022-08-19T07:45:44;21.60;99.90
3816;DHT22;1923;48.154;11.536;2022-08-19T07:48:14;21.70;99.90
3816;DHT22;1923;48.154;11.536;2022-08-19T07:50:43;21.80;99.90
3816;DHT22;1923;48.154;11.536;2022-08-19T07:53:12;21.90;99.90
3816;DHT22;1923;48.154;11.536;2022-08-19T07:55:40;21.80;99.90
3816;DHT22;1923;48.154;11.536;2022-08-19T07:58:11;21.90;99.90
3816;DHT22;1923;48.154;11.536;2022-08-19T08:00:41;21.80;99.90
3816;DHT22;1923;48.154;11.536;2022-08-19T08:03:10;21.80;99.90
3816;DHT22;1923;48.154;11.536;2022-08-19T08:05:38;21.80;99.90
3816;DHT22;1923;48.154;11.536;2022-08-19T08:08:25;21.80;99.90
3816;DHT22;1923;48.154;11.536;2022-08-19T08:11:15;21.80;99.90
3816;DHT22;1923;48.154;11.536;2022-08-19T08:13:46;21.70;99.90
3816;DHT22;1923;48.154;11.536;2022-08-19T08:16:31;21.80;99.90
3816;DHT22;1923;48.154;11.536;2022-08-19T08:19:05;21.70;99.90
3816;DHT22;1923;48.154;11.536;2022-08-19T08:21:49;21.60;99.90
3816;DHT22;1923;48.154;11.536;2022-08-19T08:24:19;21.60;99.90
3816;DHT22;1923;48.154;11.536;2022-08-19T08:26:54;21.60;99.90
3816;DHT22;1923;48.154;11.536;2022-08-19T08:29:23;21.50;99.90
3816;DHT22;1923;48.154;11.536;2022-08-19T08:32:01;21.60;99.90
3816;DHT22;1923;48.154;11.536;2022-08-19T08:34:39;21.60;99.90
3816;DHT22;1923;48.154;11.536;2022-08-19T08:37:08;21.60;99.90
3816;DHT22;1923;48.154;11.536;2022-08-19T08:39:37;21.60;99.90
3816;DHT22;1923;48.154;11.536;2022-08-19T08:42:09;21.50;99.90
3816;DHT22;1923;48.154;11.536;2022-08-19T08:44:50;21.50;99.90
3816;DHT22;1923;48.154;11.536;2022-08-19T08:47:27;21.60;99.90
3816;DHT22;1923;48.154;11.536;2022-08-19T08:50:03;21.50;99.90
3816;DHT22;1923;48.154;11.536;2022-08-19T08:52:34;21.40;99.90
3816;DHT22;1923;48.154;11.536;2022-08-19T08:55:09;21.40;99.90
3816;DHT22;1923;48.154;11.536;2022-08-19T08:57:50;21.40;99.90
3816;DHT22;1923;48.154;11.536;2022-08-19T09:00:25;21.40;99.90
3816;DHT22;1923;48.154;11.536;2022-08-19T09:02:54;21.30;99.90
3816;DHT22;1923;48.154;11.536;2022-08-19T09:05:32;21.30;99.90
3816;DHT22;1923;48.154;11.536;2022-08-19T09:08:19;21.20;99.90
3816;DHT22;1923;48.154;11.536;2022-08-19T09:10:54;21.10;99.90
3816;DHT22;1923;48.154;11.536;2022-08-19T09:13:30;21.00;99.90
3816;DHT22;1923;48.154;11.536;2022-08-19T09:16:06;20.90;99.90
3816;DHT22;1923;48.154;11.536;2022-08-19T09:18:45;20.80;99.90
3816;DHT22;1923;48.154;11.536;2022-08-19T09:21:15;20.80;99.90
3816;DHT22;1923;48.154;11.536;2022-08-19T09:23:47;20.70;99.90
3816;DHT22;1923;48.154;11.536;2022-08-19T09:26:21;20.60;99.90
3816;DHT22;1923;48.154;11.536;2022-08-19T09:29:01;20.60;99.90
3816;DHT22;1923;48.154;11.536;2022-08-19T09:31:56;20.60;99.90
3816;DHT22;1923;48.154;11.536;2022-08-19T09:34:24;20.60;99.90
3816;DHT22;1923;48.154;11.536;2022-08-19T09:36:52;20.60;99.90
3816;DHT22;1923;48.154;11.536;2022-08-19T09:39:21;20.70;99.90
3816;DHT22;1923;48.154;11.536;2022-08-19T09:41:51;20.70;99.90
3816;DHT22;1923;48.154;11.536;2022-08-19T09:44:23;20.70;99.90
3816;DHT22;1923;48.154;11.536;2022-08-19T09:46:52;20.70;99.90
3816;DHT22;1923;48.154;11.536;2022-08-19T09:49:20;20.70;99.90
3816;DHT22;1923;48.154;11.536;2022-08-19T09:51:51;20.70;99.90
3816;DHT22;1923;48.154;11.536;2022-08-19T09:54:20;20.80;99.90
3816;DHT22;1923;48.154;11.536;2022-08-19T09:56:52;20.80;99.90
3816;DHT22;1923;48.154;11.536;2022-08-19T09:59:21;21.00;99.90
3816;DHT22;1923;48.154;11.536;2022-08-19T10:01:49;21.10;99.90
3816;DHT22;1923;48.154;11.536;2022-08-19T10:04:19;21.10;99.90
3816;DHT22;1923;48.154;11.536;2022-08-19T10:06:49;21.10;99.90
3816;DHT22;1923;48.154;11.536;2022-08-19T10:09:21;21.10;99.90
3816;DHT22;1923;48.154;11.536;2022-08-19T10:12:03;21.10;99.90
3816;DHT22;1923;48.154;11.536;2022-08-19T10:14:32;21.20;99.90
3816;DHT22;1923;48.154;11.536;2022-08-19T10:17:01;21.30;99.90
3816;DHT22;1923;48.154;11.536;2022-08-19T10:19:45;21.30;99.90
3816;DHT22;1923;48.154;11.536;2022-08-19T10:22:21;21.20;99.90
3816;DHT22;1923;48.154;11.536;2022-08-19T10:24:51;21.30;99.90
3816;DHT22;1923;48.154;11.536;2022-08-19T10:27:22;21.50;99.90
3816;DHT22;1923;48.154;11.536;2022-08-19T10:29:52;21.80;99.90
3816;DHT22;1923;48.154;11.536;2022-08-19T10:32:21;22.10;99.90
3816;DHT22;1923;48.154;11.536;2022-08-19T10:35:00;22.60;99.90
3816;DHT22;1923;48.154;11.536;2022-08-19T10:37:31;23.00;99.90
3816;DHT22;1923;48.154;11.536;2022-08-19T10:40:01;23.90;99.90
3816;DHT22;1923;48.154;11.536;2022-08-19T10:42:31;25.10;99.90
3816;DHT22;1923;48.154;11.536;2022-08-19T10:44:59;26.30;99.90
3816;DHT22;1923;48.154;11.536;2022-08-19T10:47:30;27.20;99.90
3816;DHT22;1923;48.154;11.536;2022-08-19T10:49:59;27.40;99.90
3816;DHT22;1923;48.154;11.536;2022-08-19T10:52:46;27.30;99.90
3816;DHT22;1923;48.154;11.536;2022-08-19T10:55:18;27.10;99.90
3816;DHT22;1923;48.154;11.536;2022-08-19T10:58:12;27.00;99.90
3816;DHT22;1923;48.154;11.536;2022-08-19T11:00:42;27.10;99.90
3816;DHT22;1923;48.154;11.536;2022-08-19T11:03:11;26.90;99.90
3816;DHT22;1923;48.154;11.536;2022-08-19T11:05:39;26.80;99.90
3816;DHT22;1923;48.154;11.536;2022-08-19T11:08:08;26.60;99.90
3816;DHT22;1923;48.154;11.536;2022-08-19T11:10:50;26.30;99.90
3816;DHT22;1923;48.154;11.536;2022-08-19T11:13:21;25.80;99.90
3816;DHT22;1923;48.154;11.536;2022-08-19T11:15:56;25.50;99.90
3816;DHT22;1923;48.154;11.536;2022-08-19T11:18:30;25.20;99.90
3816;DHT22;1923;48.154;11.536;2022-08-19T11:21:06;24.90;99.90
3816;DHT22;1923;48.154;11.536;2022-08-19T11:23:35;24.80;99.90
3816;DHT22;1923;48.154;11.536;2022-08-19T11:26:03;24.70;99.90
3816;DHT22;1923;48.154;11.536;2022-08-19T11:28:33;24.50;99.90
3816;DHT22;1923;48.154;11.536;2022-08-19T11:31:01;24.10;99.90
3816;DHT22;1923;48.154;11.536;2022-08-19T11:33:30;24.30;99.90
3816;DHT22;1923;48.154;11.536;2022-08-19T11:35:59;24.20;99.90
3816;DHT22;1923;48.154;11.536;2022-08-19T11:38:28;24.30;99.90
3816;DHT22;1923;48.154;11.536;2022-08-19T11:40:57;24.40;99.90
3816;DHT22;1923;48.154;11.536;2022-08-19T11:43:26;24.50;99.90
3816;DHT22;1923;48.154;11.536;2022-08-19T11:45:56;24.60;99.90
3816;DHT22;1923;48.154;11.536;2022-08-19T11:48:25;24.70;99.90
3816;DHT22;1923;48.154;11.536;2022-08-19T11:50:53;25.00;99.90
3816;DHT22;1923;48.154;11.536;2022-08-19T11:53:23;25.10;99.90
3816;DHT22;1923;48.154;11.536;2022-08-19T11:55:53;24.90;99.90
3816;DHT22;1923;48.154;11.536;2022-08-19T11:58:23;25.00;99.90
3816;DHT22;1923;48.154;11.536;2022-08-19T12:00:52;25.00;99.90
3816;DHT22;1923;48.154;11.536;2022-08-19T12:03:21;25.00;99.90
3816;DHT22;1923;48.154;11.536;2022-08-19T12:05:50;24.70;99.90
3816;DHT22;1923;48.154;11.536;2022-08-19T12:08:19;24.70;99.90
3816;DHT22;1923;48.154;11.536;2022-08-19T12:10:47;24.60;99.90
3816;DHT22;1923;48.154;11.536;2022-08-19T12:13:15;24.50;99.90
3816;DHT22;1923;48.154;11.536;2022-08-19T12:15:46;24.20;99.90
3816;DHT22;1923;48.154;11.536;2022-08-19T12:18:15;24.20;99.90
3816;DHT22;1923;48.154;11.536;2022-08-19T12:20:44;24.00;99.90
3816;DHT22;1923;48.154;11.536;2022-08-19T12:23:13;24.00;99.90
3816;DHT22;1923;48.154;11.536;2022-08-19T12:25:44;23.80;99.90
3816;DHT22;1923;48.154;11.536;2022-08-19T12:28:15;23.80;99.90
3816;DHT22;1923;48.154;11.536;2022-08-19T12:30:43;23.70;99.90
3816;DHT22;1923;48.154;11.536;2022-08-19T12:33:11;23.80;99.90
3816;DHT22;1923;48.154;11.536;2022-08-19T12:35:40;23.90;99.90
3816;DHT22;1923;48.154;11.536;2022-08-19T12:38:13;24.00;99.90
3816;DHT22;1923;48.154;11.536;2022-08-19T12:40:42;24.00;99.90
3816;DHT22;1923;48.154;11.536;2022-08-19T12:43:13;24.10;99.90
3816;DHT22;1923;48.154;11.536;2022-08-19T12:45:42;24.20;99.90
3816;DHT22;1923;48.154;11.536;2022-08-19T12:48:13;24.20;99.90
3816;DHT22;1923;48.154;11.536;2022-08-19T12:51:05;24.40;99.90
3816;DHT22;1923;48.154;11.536;2022-08-19T12:53:35;24.50;99.90
3816;DHT22;1923;48.154;11.536;2022-08-19T12:56:05;24.50;99.90
3816;DHT22;1923;48.154;11.536;2022-08-19T12:58:38;24.70;99.90
3816;DHT22;1923;48.154;11.536;2022-08-19T13:01:17;24.50;99.90
3816;DHT22;1923;48.154;11.536;2022-08-19T13:03:49;24.70;99.90
3816;DHT22;1923;48.154;11.536;2022-08-19T13:06:19;24.70;99.90
3816;DHT22;1923;48.154;11.536;2022-08-19T13:08:49;24.70;99.90
3816;DHT22;1923;48.154;11.536;2022-08-19T13:11:23;24.90;99.90
3816;DHT22;1923;48.154;11.536;2022-08-19T13:13:52;25.00;99.90
3816;DHT22;1923;48.154;11.536;2022-08-19T13:16:22;24.80;99.90
3816;DHT22;1923;48.154;11.536;2022-08-19T13:18:50;24.90;99.90
3816;DHT22;1923;48.154;11.536;2022-08-19T13:21:20;24.90;99.90
3816;DHT22;1923;48.154;11.536;2022-08-19T13:23:51;24.60;99.90
3816;DHT22;1923;48.154;11.536;2022-08-19T13:26:20;24.70;99.90
3816;DHT22;1923;48.154;11.536;2022-08-19T13:28:48;24.50;99.90
3816;DHT22;1923;48.154;11.536;2022-08-19T13:31:35;24.50;99.90
3816;DHT22;1923;48.154;11.536;2022-08-19T13:34:27;24.40;99.90
3816;DHT22;1923;48.154;11.536;2022-08-19T13:36:57;24.40;99.90
3816;DHT22;1923;48.154;11.536;2022-08-19T13:39:27;24.30;99.90
3816;DHT22;1923;48.154;11.536;2022-08-19T13:41:55;24.20;99.90
3816;DHT22;1923;48.154;11.536;2022-08-19T13:44:26;24.20;99.90
3816;DHT22;1923;48.154;11.536;2022-08-19T13:47:00;24.20;99.90
3816;DHT22;1923;48.154;11.536;2022-08-19T13:49:32;24.00;99.90
3816;DHT22;1923;48.154;11.536;2022-08-19T13:52:02;24.20;99.90
3816;DHT22;1923;48.154;11.536;2022-08-19T13:54:32;24.20;99.90
3816;DHT22;1923;48.154;11.536;2022-08-19T13:57:00;24.10;99.90
3816;DHT22;1923;48.154;11.536;2022-08-19T13:59:29;24.00;99.90
3816;DHT22;1923;48.154;11.536;2022-08-19T14:01:58;24.00;99.90
3816;DHT22;1923;48.154;11.536;2022-08-19T14:04:26;23.90;99.90
3816;DHT22;1923;48.154;11.536;2022-08-19T14:06:54;23.80;99.90
3816;DHT22;1923;48.154;11.536;2022-08-19T14:09:23;23.70;99.90
3816;DHT22;1923;48.154;11.536;2022-08-19T14:11:52;23.60;99.90
3816;DHT22;1923;48.154;11.536;2022-08-19T14:14:20;23.80;99.90
3816;DHT22;1923;48.154;11.536;2022-08-19T14:16:49;23.80;99.90
3816;DHT22;1923;48.154;11.536;2022-08-19T14:19:18;23.80;99.90
3816;DHT22;1923;48.154;11.536;2022-08-19T14:21:47;23.70;99.90
3816;DHT22;1923;48.154;11.536;2022-08-19T14:24:15;23.60;99.90
3816;DHT22;1923;48.154;11.536;2022-08-19T14:26:43;23.60;99.90
3816;DHT22;1923;48.154;11.536;2022-08-19T14:29:12;23.80;99.90
3816;DHT22;1923;48.154;11.536;2022-08-19T14:31:40;23.80;99.90
3816;DHT22;1923;48.154;11.536;2022-08-19T14:34:10;23.70;99.90
3816;DHT22;1923;48.154;11.536;2022-08-19T14:36:40;23.70;99.90
3816;DHT22;1923;48.154;11.536;2022-08-19T14:39:08;23.60;99.90
3816;DHT22;1923;48.154;11.536;2022-08-19T14:41:40;23.70;99.90
3816;DHT22;1923;48.154;11.536;2022-08-19T14:44:08;24.00;99.90
3816;DHT22;1923;48.154;11.536;2022-08-19T14:46:40;23.90;99.90
3816;DHT22;1923;48.154;11.536;2022-08-19T14:49:15;23.90;99.90
3816;DHT22;1923;48.154;11.536;2022-08-19T14:51:45;23.90;99.90
3816;DHT22;1923;48.154;11.536;2022-08-19T14:54:14;23.70;99.90
3816;DHT22;1923;48.154;11.536;2022-08-19T14:56:42;23.70;99.90
3816;DHT22;1923;48.154;11.536;2022-08-19T14:59:10;23.60;99.90
3816;DHT22;1923;48.154;11.536;2022-08-19T15:01:40;23.60;99.90
3816;DHT22;1923;48.154;11.536;2022-08-19T15:04:09;23.70;99.90
3816;DHT22;1923;48.154;11.536;2022-08-19T15:06:37;23.60;99.90
3816;DHT22;1923;48.154;11.536;2022-08-19T15:09:05;23.70;99.90
3816;DHT22;1923;48.154;11.536;2022-08-19T15:11:33;23.60;99.90
3816;DHT22;1923;48.154;11.536;2022-08-19T15:14:02;23.70;99.90
3816;DHT22;1923;48.154;11.536;2022-08-19T15:16:32;23.60;99.90
3816;DHT22;1923;48.154;11.536;2022-08-19T15:19:02;23.60;99.90
3816;DHT22;1923;48.154;11.536;2022-08-19T15:21:30;23.50;99.90
3816;DHT22;1923;48.154;11.536;2022-08-19T15:23:59;23.40;99.90
3816;DHT22;1923;48.154;11.536;2022-08-19T15:26:27;23.30;99.90
3816;DHT22;1923;48.154;11.536;2022-08-19T15:28:59;23.20;99.90
3816;DHT22;1923;48.154;11.536;2022-08-19T15:31:28;23.20;99.90
3816;DHT22;1923;48.154;11.536;2022-08-19T15:34:06;23.00;99.90
3816;DHT22;1923;48.154;11.536;2022-08-19T15:36:35;22.70;99.90
3816;DHT22;1923;48.154;11.536;2022-08-19T15:39:04;22.40;99.90
3816;DHT22;1923;48.154;11.536;2022-08-19T15:41:36;22.10;99.90
3816;DHT22;1923;48.154;11.536;2022-08-19T15:44:09;21.90;99.90
3816;DHT22;1923;48.154;11.536;2022-08-19T15:46:40;21.80;99.90
3816;DHT22;1923;48.154;11.536;2022-08-19T15:49:12;21.80;99.90
3816;DHT22;1923;48.154;11.536;2022-08-19T15:51:42;21.70;99.90
3816;DHT22;1923;48.154;11.536;2022-08-19T15:54:12;21.80;99.90
3816;DHT22;1923;48.154;11.536;2022-08-19T15:56:41;21.80;99.90
3816;DHT22;1923;48.154;11.536;2022-08-19T15:59:26;21.70;99.90
3816;DHT22;1923;48.154;11.536;2022-08-19T16:02:13;21.70;99.90
3816;DHT22;1923;48.154;11.536;2022-08-19T16:05:01;21.70;99.90
3816;DHT22;1923;48.154;11.536;2022-08-19T16:07:43;21.70;99.90
3816;DHT22;1923;48.154;11.536;2022-08-19T16:10:11;21.80;99.90
3816;DHT22;1923;48.154;11.536;2022-08-19T16:12:52;21.80;99.90